createdAt,value
2022-09-06T00:00:54.819Z,2.13
2022-09-06T00:03:21.853Z,2.00
2022-09-06T00:05:48.846Z,2.50
2022-09-06T00:08:15.594Z,2.53
2022-09-06T00:10:42.588Z,2.30
2022-09-06T00:13:13.307Z,2.17
2022-09-06T00:15:39.970Z,2.40
2022-09-06T00:18:09.327Z,2.45
2022-09-06T00:20:38.318Z,2.85
2022-09-06T00:23:05.920Z,2.47
2022-09-06T00:25:34.757Z,2.28
2022-09-06T00:28:03.341Z,2.10
2022-09-06T00:30:31.840Z,2.30
2022-09-06T00:32:58.565Z,1.55
2022-09-06T00:35:27.869Z,1.67
2022-09-06T00:37:57.428Z,1.60
2022-09-06T00:40:27.618Z,1.80
2022-09-06T00:42:54.511Z,1.83
2022-09-06T00:45:22.047Z,1.70
2022-09-06T00:47:50.100Z,2.03
2022-09-06T00:50:18.962Z,1.92
2022-09-06T00:52:51.689Z,1.90
2022-09-06T00:55:19.623Z,2.00
2022-09-06T00:57:46.911Z,2.15
2022-09-06T01:00:14.846Z,2.00
2022-09-06T01:02:42.332Z,2.00
2022-09-06T01:05:10.406Z,2.13
2022-09-06T01:07:51.436Z,2.13
2022-09-06T01:10:45.775Z,1.85
2022-09-06T01:13:24.907Z,1.90
2022-09-06T01:16:00.942Z,2.10
2022-09-06T01:18:41.947Z,2.20
2022-09-06T01:21:36.420Z,2.30
2022-09-06T01:24:43.565Z,2.30
2022-09-06T01:27:46.229Z,2.60
2022-09-06T01:30:16.436Z,2.22
2022-09-06T01:32:54.143Z,2.60
2022-09-06T01:35:29.547Z,2.22
2022-09-06T01:37:58.584Z,2.58
2022-09-06T01:40:25.659Z,2.60
2022-09-06T01:42:55.408Z,2.20
2022-09-06T01:45:30.404Z,2.15
2022-09-06T01:48:09.353Z,2.28
2022-09-06T01:50:52.844Z,2.50
2022-09-06T01:53:32.656Z,2.47
2022-09-06T01:56:07.748Z,2.90
2022-09-06T01:59:01.994Z,2.65
2022-09-06T02:01:36.257Z,2.50
2022-09-06T02:04:12.583Z,2.45
2022-09-06T02:06:43.716Z,2.57
2022-09-06T02:09:16.101Z,2.40
2022-09-06T02:11:49.102Z,2.45
2022-09-06T02:14:23.453Z,2.72
2022-09-06T02:16:55.805Z,2.78
2022-09-06T02:19:27.966Z,2.80
2022-09-06T02:21:57.921Z,2.50
2022-09-06T02:24:30.743Z,2.50
2022-09-06T02:26:58.169Z,2.60
2022-09-06T02:29:26.950Z,2.97
2022-09-06T02:32:00.453Z,2.73
2022-09-06T02:34:29.203Z,2.40
2022-09-06T02:36:56.913Z,2.72
2022-09-06T02:39:24.546Z,2.50
2022-09-06T02:41:52.174Z,2.72
2022-09-06T02:44:18.783Z,2.50
2022-09-06T02:46:46.918Z,2.33
2022-09-06T02:49:13.717Z,2.70
2022-09-06T02:51:40.875Z,2.60
2022-09-06T02:54:07.885Z,3.00
2022-09-06T02:56:37.852Z,2.87
2022-09-06T02:59:04.545Z,2.50
2022-09-06T03:01:31.442Z,2.35
2022-09-06T03:04:03.351Z,2.40
2022-09-06T03:06:30.308Z,2.90
2022-09-06T03:08:57.132Z,2.90
2022-09-06T03:11:24.117Z,2.97
2022-09-06T03:13:51.010Z,2.67
2022-09-06T03:16:18.107Z,2.42
2022-09-06T03:18:45.082Z,2.42
2022-09-06T03:21:13.422Z,2.70
2022-09-06T03:23:42.409Z,2.67
2022-09-06T03:26:09.247Z,2.63
2022-09-06T03:28:36.639Z,2.53
2022-09-06T03:31:04.051Z,2.42
2022-09-06T03:33:30.752Z,2.83
2022-09-06T03:35:59.151Z,2.60
2022-09-06T03:38:28.441Z,2.60
2022-09-06T03:40:55.568Z,3.10
2022-09-06T03:43:24.302Z,2.90
2022-09-06T03:45:53.789Z,3.00
2022-09-06T03:48:23.708Z,3.33
2022-09-06T03:50:52.902Z,3.20
2022-09-06T03:53:21.899Z,3.70
2022-09-06T03:55:51.992Z,3.70
2022-09-06T03:58:21.039Z,3.37
2022-09-06T04:00:48.787Z,3.20
2022-09-06T04:03:15.972Z,3.22
2022-09-06T04:05:46.624Z,3.33
2022-09-06T04:08:13.239Z,3.10
2022-09-06T04:10:39.891Z,3.43
2022-09-06T04:13:15.304Z,3.50
2022-09-06T04:15:45.662Z,3.00
2022-09-06T04:18:12.812Z,3.50
2022-09-06T04:20:40.903Z,3.40
2022-09-06T04:23:07.784Z,3.47
2022-09-06T04:25:37.489Z,3.72
2022-09-06T04:28:04.363Z,3.25
2022-09-06T04:30:34.958Z,3.20
2022-09-06T04:33:01.913Z,2.88
2022-09-06T04:35:28.907Z,3.07
2022-09-06T04:37:58.614Z,3.00
2022-09-06T04:40:25.227Z,3.00
2022-09-06T04:42:51.852Z,2.67
2022-09-06T04:45:18.984Z,3.15
2022-09-06T04:47:47.113Z,3.63
2022-09-06T04:50:14.121Z,2.97
2022-09-06T04:52:40.742Z,3.55
2022-09-06T04:55:08.320Z,3.38
2022-09-06T04:57:38.993Z,3.13
2022-09-06T05:00:10.987Z,3.30
2022-09-06T05:02:38.240Z,3.60
2022-09-06T05:05:09.120Z,3.20
2022-09-06T05:07:36.316Z,3.40
2022-09-06T05:10:13.513Z,3.60
2022-09-06T05:12:44.095Z,3.20
2022-09-06T05:15:11.352Z,3.53
2022-09-06T05:17:37.959Z,3.10
2022-09-06T05:20:08.732Z,3.20
2022-09-06T05:22:42.815Z,3.50
2022-09-06T05:25:10.132Z,3.20
2022-09-06T05:27:36.866Z,3.50
2022-09-06T05:30:04.040Z,3.00
2022-09-06T05:32:31.254Z,3.47
2022-09-06T05:34:58.017Z,3.38
2022-09-06T05:37:26.993Z,3.00
2022-09-06T05:39:53.791Z,3.20
2022-09-06T05:42:20.520Z,3.20
2022-09-06T05:44:47.230Z,3.35
2022-09-06T05:47:13.947Z,2.72
2022-09-06T05:49:41.038Z,3.17
2022-09-06T05:52:08.709Z,2.92
2022-09-06T05:54:37.029Z,2.97
2022-09-06T05:57:04.931Z,3.33
2022-09-06T05:59:31.920Z,3.15
2022-09-06T06:01:59.527Z,2.73
2022-09-06T06:04:26.607Z,3.03
2022-09-06T06:06:53.332Z,2.53
2022-09-06T06:09:19.979Z,2.92
2022-09-06T06:11:47.994Z,2.85
2022-09-06T06:14:14.668Z,3.27
2022-09-06T06:16:42.525Z,3.80
2022-09-06T06:19:09.278Z,3.38
2022-09-06T06:21:36.943Z,3.45
2022-09-06T06:24:05.453Z,3.22
2022-09-06T06:26:34.269Z,3.43
2022-09-06T06:29:02.674Z,3.15
2022-09-06T06:31:30.120Z,4.03
2022-09-06T06:33:57.382Z,4.13
2022-09-06T06:36:26.878Z,3.83
2022-09-06T06:38:55.359Z,3.83
2022-09-06T06:41:23.765Z,3.30
2022-09-06T06:43:55.753Z,2.90
2022-09-06T06:46:28.838Z,3.30
2022-09-06T06:48:55.827Z,2.85
2022-09-06T06:51:23.784Z,3.40
2022-09-06T06:53:52.292Z,3.05
2022-09-06T06:56:26.073Z,2.80
2022-09-06T06:58:55.256Z,2.90
2022-09-06T07:01:23.036Z,3.65
2022-09-06T07:03:52.300Z,2.70
2022-09-06T07:06:20.017Z,3.08
2022-09-06T07:08:47.105Z,2.65
2022-09-06T07:11:16.204Z,2.60
2022-09-06T07:13:43.610Z,2.42
2022-09-06T07:16:12.390Z,2.60
2022-09-06T07:18:40.748Z,2.28
2022-09-06T07:24:06.456Z,2.47
2022-09-06T07:26:34.646Z,2.70
2022-09-06T07:29:05.939Z,2.30
2022-09-06T07:34:22.239Z,2.00
2022-09-06T07:36:52.425Z,2.15
2022-09-06T07:39:19.134Z,2.20
2022-09-06T07:41:45.773Z,2.30
2022-09-06T07:44:12.382Z,2.00
2022-09-06T07:46:39.286Z,2.17
2022-09-06T07:49:06.213Z,1.73
2022-09-06T07:54:31.703Z,2.10
2022-09-06T07:56:58.479Z,2.30
2022-09-06T07:59:25.143Z,1.73
2022-09-06T08:01:54.190Z,1.77
2022-09-06T08:04:21.194Z,1.75
2022-09-06T08:09:37.967Z,1.50
2022-09-06T08:12:09.423Z,1.60
2022-09-06T08:14:36.143Z,1.70
2022-09-06T08:17:02.999Z,1.52
2022-09-06T08:19:29.974Z,1.70
2022-09-06T08:21:57.700Z,1.70
2022-09-06T08:24:24.375Z,1.77
2022-09-06T08:26:52.908Z,1.65
2022-09-06T08:29:19.804Z,1.70
2022-09-06T08:31:47.440Z,1.57
2022-09-06T08:37:05.334Z,1.60
2022-09-06T08:39:33.832Z,1.80
2022-09-06T08:42:11.804Z,1.35
2022-09-06T08:44:57.231Z,1.70
2022-09-06T08:47:26.253Z,1.50
2022-09-06T08:49:57.840Z,1.23
2022-09-06T08:53:13.077Z,1.40
2022-09-06T08:55:42.961Z,1.58
2022-09-06T08:58:22.956Z,1.50
2022-09-06T09:00:54.760Z,1.30
2022-09-06T09:03:26.872Z,1.52
2022-09-06T09:05:53.855Z,1.60
2022-09-06T09:08:25.697Z,1.40
2022-09-06T09:10:58.217Z,1.63
2022-09-06T09:13:31.728Z,1.45
2022-09-06T09:15:59.196Z,1.40
2022-09-06T09:18:29.878Z,1.42
2022-09-06T09:21:00.867Z,1.30
2022-09-06T09:23:30.317Z,1.47
2022-09-06T09:26:02.651Z,1.15
2022-09-06T09:28:36.209Z,1.50
2022-09-06T09:31:02.921Z,1.30
2022-09-06T09:33:34.712Z,1.42
2022-09-06T09:36:06.256Z,1.73
2022-09-06T09:38:40.131Z,1.45
2022-09-06T09:41:08.273Z,1.15
2022-09-06T09:43:45.091Z,1.48
2022-09-06T09:46:28.787Z,1.50
2022-09-06T09:49:08.201Z,1.30
2022-09-06T09:51:46.123Z,1.17
2022-09-06T09:54:14.675Z,1.35
2022-09-06T09:56:47.714Z,1.27
2022-09-06T09:59:22.303Z,1.40
2022-09-06T10:01:49.844Z,1.20
2022-09-06T10:07:13.392Z,1.20
2022-09-06T10:09:42.586Z,1.30
2022-09-06T10:12:16.082Z,1.40
2022-09-06T10:14:46.628Z,1.00
2022-09-06T10:17:33.068Z,1.10
2022-09-06T10:20:03.119Z,1.38
2022-09-06T10:22:35.544Z,1.20
2022-09-06T10:25:38.774Z,1.10
2022-09-06T10:28:29.598Z,1.40
2022-09-06T10:31:07.541Z,1.20
2022-09-06T10:33:48.794Z,1.40
2022-09-06T10:36:20.600Z,1.40
2022-09-06T10:38:54.070Z,1.27
2022-09-06T10:41:38.005Z,1.30
2022-09-06T10:44:16.680Z,1.38
2022-09-06T10:46:45.964Z,1.35
2022-09-06T10:49:18.671Z,1.23
2022-09-06T10:51:48.965Z,1.20
2022-09-06T10:54:21.851Z,1.40
2022-09-06T10:56:56.139Z,1.30
2022-09-06T10:59:36.279Z,1.30
2022-09-06T11:02:16.681Z,1.13
2022-09-06T11:07:40.473Z,1.37
2022-09-06T11:10:14.840Z,1.27
2022-09-06T11:12:49.013Z,1.13
2022-09-06T11:15:18.150Z,1.38
2022-09-06T11:17:52.781Z,1.23
2022-09-06T11:20:27.482Z,1.70
2022-09-06T11:23:23.614Z,1.40
2022-09-06T11:26:25.350Z,1.65
2022-09-06T11:28:55.172Z,1.40
2022-09-06T11:34:23.047Z,1.43
2022-09-06T11:36:52.220Z,1.65
2022-09-06T11:42:40.785Z,1.80
2022-09-06T11:45:17.099Z,1.30
2022-09-06T11:47:45.523Z,1.80
2022-09-06T11:50:23.336Z,1.30
2022-09-06T11:52:58.781Z,1.38
2022-09-06T11:55:34.099Z,1.77
2022-09-06T11:58:04.901Z,1.70
2022-09-06T12:00:33.006Z,1.40
2022-09-06T12:06:17.131Z,1.30
2022-09-06T12:08:44.492Z,1.90
2022-09-06T12:11:30.588Z,1.73
2022-09-06T12:14:03.674Z,1.60
2022-09-06T12:17:09.952Z,1.73
2022-09-06T12:19:44.674Z,1.92
2022-09-06T12:22:54.913Z,2.00
2022-09-06T12:25:52.741Z,1.85
2022-09-06T12:28:27.499Z,1.87
2022-09-06T12:30:54.415Z,1.77
2022-09-06T12:33:26.390Z,1.98
2022-09-06T12:35:56.572Z,2.10
2022-09-06T12:38:28.345Z,2.20
2022-09-06T12:40:55.405Z,1.90
2022-09-06T12:43:22.324Z,2.08
2022-09-06T12:45:51.807Z,2.22
2022-09-06T12:48:29.723Z,2.35
2022-09-06T12:51:08.760Z,2.60
2022-09-06T12:53:37.133Z,2.00
2022-09-06T12:56:06.865Z,2.20
2022-09-06T12:58:37.845Z,1.80
2022-09-06T13:01:11.086Z,2.03
2022-09-06T13:03:43.831Z,2.00
2022-09-06T13:06:16.943Z,2.00
2022-09-06T13:08:49.425Z,2.30
2022-09-06T13:11:23.579Z,2.10
2022-09-06T13:13:54.610Z,2.20
2022-09-06T13:16:23.525Z,2.22
2022-09-06T13:18:50.898Z,2.00
2022-09-06T13:21:26.354Z,2.00
2022-09-06T13:23:54.700Z,1.65
2022-09-06T13:26:35.973Z,1.73
2022-09-06T13:29:22.109Z,1.58
2022-09-06T13:31:51.517Z,1.30
2022-09-06T13:34:26.257Z,1.70
2022-09-06T13:36:56.060Z,1.40
2022-09-06T13:39:39.663Z,1.80
2022-09-06T13:42:08.096Z,1.73
2022-09-06T13:44:36.624Z,1.50
2022-09-06T13:47:03.726Z,1.27
2022-09-06T13:49:32.112Z,1.50
2022-09-06T13:52:00.467Z,1.80
2022-09-06T13:54:27.543Z,1.52
2022-09-06T13:56:56.091Z,1.60
2022-09-06T13:59:23.452Z,1.70
2022-09-06T14:01:56.878Z,1.60
2022-09-06T14:04:24.544Z,1.58
2022-09-06T14:06:54.765Z,1.13
2022-09-06T14:09:21.501Z,1.60
2022-09-06T14:11:48.571Z,1.60
2022-09-06T14:14:17.465Z,1.35
2022-09-06T14:16:46.430Z,1.60
2022-09-06T14:19:14.749Z,1.40
2022-09-06T14:21:41.662Z,1.80
2022-09-06T14:24:08.501Z,1.60
2022-09-06T14:26:36.555Z,1.90
2022-09-06T14:29:04.029Z,1.67
2022-09-06T14:31:32.544Z,1.60
2022-09-06T14:33:59.576Z,1.50
2022-09-06T14:36:28.500Z,1.70
2022-09-06T14:38:57.622Z,1.70
2022-09-06T14:41:27.243Z,1.75
2022-09-06T14:43:57.620Z,1.48
2022-09-06T14:46:25.930Z,1.63
2022-09-06T14:49:01.869Z,1.85
2022-09-06T14:51:30.016Z,1.52
2022-09-06T14:53:59.832Z,1.52
2022-09-06T14:56:33.188Z,1.60
2022-09-06T14:59:01.867Z,1.60
2022-09-06T15:01:34.373Z,1.40
2022-09-06T15:04:07.740Z,1.50
2022-09-06T15:06:35.494Z,1.70
2022-09-06T15:09:02.739Z,1.50
2022-09-06T15:11:32.929Z,1.77
2022-09-06T15:14:04.689Z,1.10
2022-09-06T15:16:32.860Z,1.23
2022-09-06T15:18:59.587Z,1.20
2022-09-06T15:21:28.528Z,1.25
2022-09-06T15:23:55.576Z,1.50
2022-09-06T15:26:22.289Z,1.30
2022-09-06T15:28:49.756Z,1.23
2022-09-06T15:31:16.971Z,1.35
2022-09-06T15:33:44.042Z,1.48
2022-09-06T15:36:12.641Z,1.53
2022-09-06T15:38:44.130Z,1.38
2022-09-06T15:41:12.520Z,1.20
2022-09-06T15:43:42.026Z,1.20
2022-09-06T15:46:10.891Z,1.52
2022-09-06T15:48:41.601Z,1.47
2022-09-06T15:51:09.034Z,1.30
2022-09-06T15:53:36.850Z,1.50
2022-09-06T15:56:06.773Z,1.45
2022-09-06T15:58:33.720Z,1.23
2022-09-06T16:01:06.942Z,1.70
2022-09-06T16:03:37.118Z,1.30
2022-09-06T16:08:57.121Z,1.50
2022-09-06T16:11:26.930Z,1.30
2022-09-06T16:13:54.237Z,1.40
2022-09-06T16:16:22.013Z,1.50
2022-09-06T16:18:48.732Z,1.58
2022-09-06T16:21:18.309Z,1.40
2022-09-06T16:23:49.451Z,1.42
2022-09-06T16:26:21.151Z,1.20
2022-09-06T16:28:54.258Z,1.23
2022-09-06T16:31:22.389Z,1.20
2022-09-06T16:33:50.471Z,1.30
2022-09-06T16:36:18.445Z,1.27
2022-09-06T16:38:46.334Z,1.30
2022-09-06T16:41:20.249Z,1.45
2022-09-06T16:43:50.694Z,1.50
2022-09-06T16:46:17.442Z,1.50
2022-09-06T16:48:44.611Z,1.40
2022-09-06T16:51:14.873Z,1.30
2022-09-06T16:53:43.485Z,1.85
2022-09-06T16:56:10.842Z,1.80
2022-09-06T16:58:37.865Z,1.65
2022-09-06T17:01:17.555Z,1.50
2022-09-06T17:03:44.812Z,1.63
2022-09-06T17:06:13.883Z,1.30
2022-09-06T17:08:44.974Z,1.20
2022-09-06T17:11:17.992Z,1.40
2022-09-06T17:13:48.758Z,1.50
2022-09-06T17:16:21.943Z,1.57
2022-09-06T17:18:50.396Z,1.27
2022-09-06T17:21:17.149Z,1.50
2022-09-06T17:23:43.819Z,1.13
2022-09-06T17:26:12.429Z,1.33
2022-09-06T17:28:44.173Z,1.30
2022-09-06T17:31:16.797Z,1.65
2022-09-06T17:33:48.472Z,1.25
2022-09-06T17:36:17.921Z,1.20
2022-09-06T17:38:52.989Z,1.20
2022-09-06T17:41:37.814Z,1.80
2022-09-06T17:44:06.161Z,1.20
2022-09-06T17:46:33.238Z,1.40
2022-09-06T17:49:01.589Z,1.40
2022-09-06T17:51:28.707Z,1.42
2022-09-06T17:53:55.398Z,1.27
2022-09-06T17:56:22.319Z,1.42
2022-09-06T17:58:56.056Z,1.45
2022-09-06T18:01:27.974Z,1.70
2022-09-06T18:03:55.316Z,1.40
2022-09-06T18:06:28.764Z,1.40
2022-09-06T18:09:08.353Z,1.30
2022-09-06T18:11:48.023Z,1.52
2022-09-06T18:14:19.966Z,1.52
2022-09-06T18:16:47.484Z,1.80
2022-09-06T18:19:15.604Z,1.33
2022-09-06T18:21:43.956Z,1.42
2022-09-06T18:24:11.076Z,1.63
2022-09-06T18:26:37.894Z,1.55
2022-09-06T18:29:05.436Z,1.38
2022-09-06T18:31:33.622Z,2.00
2022-09-06T18:34:00.782Z,1.30
2022-09-06T18:36:32.352Z,1.48
2022-09-06T18:39:05.952Z,1.50
2022-09-06T18:41:33.435Z,1.30
2022-09-06T18:44:01.283Z,1.60
2022-09-06T18:46:29.680Z,1.67
2022-09-06T18:48:59.401Z,1.23
2022-09-06T18:51:27.026Z,1.33
2022-09-06T18:53:56.058Z,1.30
2022-09-06T18:56:25.476Z,1.60
2022-09-06T18:58:54.644Z,1.45
2022-09-06T19:01:21.987Z,1.80
2022-09-06T19:03:48.872Z,1.77
2022-09-06T19:06:17.630Z,1.70
2022-09-06T19:08:51.241Z,1.67
2022-09-06T19:11:21.933Z,1.50
2022-09-06T19:13:53.022Z,1.40
2022-09-06T19:16:20.762Z,1.65
2022-09-06T19:18:47.720Z,1.40
2022-09-06T19:21:16.626Z,1.77
2022-09-06T19:23:45.175Z,1.65
2022-09-06T19:26:14.479Z,1.83
2022-09-06T19:28:42.437Z,1.75
2022-09-06T19:31:12.525Z,1.90
2022-09-06T19:33:39.657Z,1.60
2022-09-06T19:36:11.939Z,1.85
2022-09-06T19:39:10.308Z,1.63
2022-09-06T19:41:28.512Z,1.98
2022-09-06T19:44:04.666Z,1.80
2022-09-06T19:46:46.183Z,1.83
2022-09-06T19:49:21.187Z,1.90
2022-09-06T19:52:16.347Z,1.90
2022-09-06T19:54:43.322Z,2.10
2022-09-06T19:57:09.937Z,1.70
2022-09-06T19:59:36.602Z,2.40
2022-09-06T20:02:05.146Z,2.20
2022-09-06T20:04:32.158Z,2.45
2022-09-06T20:06:58.880Z,2.72
2022-09-06T20:09:25.794Z,2.65
2022-09-06T20:11:52.720Z,2.60
2022-09-06T20:14:19.336Z,2.25
2022-09-06T20:16:46.162Z,2.50
2022-09-06T20:19:14.320Z,2.38
2022-09-06T20:21:41.374Z,1.83
2022-09-06T20:24:08.173Z,1.87
2022-09-06T20:26:37.221Z,1.92
2022-09-06T20:29:06.098Z,2.17
2022-09-06T20:31:34.185Z,2.13
2022-09-06T20:34:02.423Z,1.92
2022-09-06T20:36:31.130Z,1.73
2022-09-06T20:39:00.896Z,1.85
2022-09-06T20:41:27.971Z,1.65
2022-09-06T20:43:56.096Z,1.80
2022-09-06T20:46:25.022Z,1.70
2022-09-06T20:48:52.856Z,1.70
2022-09-06T20:51:23.076Z,1.65
2022-09-06T20:53:55.460Z,1.50
2022-09-06T20:56:28.955Z,1.30
2022-09-06T20:59:01.160Z,1.63
2022-09-06T21:01:29.564Z,1.67
2022-09-06T21:03:58.098Z,1.50
2022-09-06T21:06:27.048Z,1.40
2022-09-06T21:08:57.087Z,1.30
2022-09-06T21:11:27.749Z,1.50
2022-09-06T21:13:56.492Z,1.10
2022-09-06T21:16:28.384Z,1.33
2022-09-06T21:18:58.089Z,1.45
2022-09-06T21:21:31.686Z,1.20
2022-09-06T21:24:01.657Z,1.38
2022-09-06T21:26:29.071Z,1.60
2022-09-06T21:28:56.802Z,1.20
2022-09-06T21:31:25.169Z,1.30
2022-09-06T21:33:53.465Z,1.85
2022-09-06T21:36:21.880Z,1.33
2022-09-06T21:38:51.706Z,1.30
2022-09-06T21:41:20.312Z,1.30
2022-09-06T21:43:47.279Z,1.45
2022-09-06T21:46:16.159Z,1.50
2022-09-06T21:48:44.573Z,1.45
2022-09-06T21:51:13.024Z,1.38
2022-09-06T21:53:40.557Z,1.13
2022-09-06T21:56:07.663Z,1.10
2022-09-06T21:58:36.442Z,1.20
2022-09-06T22:01:04.345Z,1.27
2022-09-06T22:03:34.710Z,1.13
2022-09-06T22:06:08.514Z,0.90
2022-09-06T22:08:35.341Z,1.35
2022-09-06T22:11:08.753Z,1.40
2022-09-06T22:13:36.907Z,1.23
2022-09-06T22:16:07.871Z,1.50
2022-09-06T22:18:35.645Z,1.45
2022-09-06T22:21:03.972Z,1.20
2022-09-06T22:23:31.789Z,1.48
2022-09-06T22:26:03.185Z,1.25
2022-09-06T22:28:30.986Z,1.23
2022-09-06T22:30:59.520Z,1.23
2022-09-06T22:33:26.390Z,1.20
2022-09-06T22:35:54.053Z,1.30
2022-09-06T22:38:21.081Z,1.10
2022-09-06T22:40:47.819Z,1.50
2022-09-06T22:43:15.388Z,1.00
2022-09-06T22:45:42.103Z,1.35
2022-09-06T22:48:10.277Z,1.23
2022-09-06T22:50:36.944Z,1.33
2022-09-06T22:53:06.841Z,1.33
2022-09-06T22:55:33.780Z,1.42
2022-09-06T22:58:01.016Z,1.05
2022-09-06T23:00:28.618Z,1.17
2022-09-06T23:02:55.499Z,1.10
2022-09-06T23:05:23.583Z,1.17
2022-09-06T23:07:52.749Z,1.35
2022-09-06T23:10:19.921Z,1.38
2022-09-06T23:12:47.073Z,1.50
2022-09-06T23:15:14.212Z,1.30
2022-09-06T23:17:40.872Z,1.03
2022-09-06T23:20:08.470Z,1.20
2022-09-06T23:22:36.544Z,1.20
2022-09-06T23:25:03.991Z,1.25
2022-09-06T23:27:30.974Z,1.00
2022-09-06T23:29:57.645Z,1.10
2022-09-06T23:32:24.345Z,1.33
2022-09-06T23:34:51.069Z,1.33
2022-09-06T23:37:17.712Z,0.70
2022-09-06T23:39:45.989Z,0.50
2022-09-06T23:42:12.671Z,0.97
2022-09-06T23:44:41.054Z,0.60
2022-09-06T23:47:07.772Z,1.02
2022-09-06T23:49:34.501Z,0.50
2022-09-06T23:52:01.711Z,0.90
2022-09-06T23:54:28.350Z,1.03
2022-09-06T23:56:56.364Z,1.00
2022-09-06T23:59:23.063Z,1.10
